This is the latest recevied weather packets stored in our database for station/object KD8FRE. If no packets are shown the sender has not sent any weather packets the latest 10 day(s).
| Time | Temp. | Humidity | Pressure | Rain* | Wind** | Luminosity | Snow |
|---|---|---|---|---|---|---|---|
| 1777497262 | 10° C | 84% | 1011.3 hPa | 0 mm | - | 54 W/m² | - |
| 1777496958 | 10° C | 82% | 1011 hPa | 0 mm | - | 73 W/m² | - |
| 1777496655 | 10° C | 80% | 1011.1 hPa | 1.27 mm | - | 74 W/m² | - |
| 1777496352 | 10° C | 78% | 1011.1 hPa | 0 mm | - | 52 W/m² | - |
| 1777496048 | 10° C | 78% | 1011.2 hPa | 0 mm | - | 53 W/m² | - |
| 1777495744 | 10.56° C | 76% | 1011.1 hPa | 0 mm | - | 58 W/m² | - |
| 1777495136 | 10.56° C | 74% | 1011.1 hPa | 0 mm | - | 38 W/m² | - |
| 1777494833 | 10.56° C | 71% | 1011 hPa | 0 mm | - | 34 W/m² | - |
| 1777494531 | 10.56° C | 71% | 1011 hPa | 0 mm | - | 45 W/m² | - |
| 1777494228 | 10.56° C | 72% | 1011.1 hPa | 0 mm | - | 55 W/m² | - |
| 1777493924 | 10.56° C | 72% | 1011.1 hPa | 0 mm | - | 50 W/m² | - |
| 1777493017 | 11.11° C | 71% | 1010.9 hPa | 0 mm | - | 68 W/m² | - |
| 1777492413 | 11.11° C | 72% | 1010.9 hPa | 0 mm | - | 95 W/m² | - |
| 1777491808 | 11.11° C | 72% | 1011 hPa | 0 mm | - | 92 W/m² | - |
| 1777491504 | 11.11° C | 72% | 1011 hPa | 0 mm | - | 98 W/m² | - |
| 1777491202 | 11.11° C | 70% | 1011 hPa | 0 mm | - | 109 W/m² | - |
| 1777490897 | 11.11° C | 72% | 1011 hPa | 0 mm | - | 84 W/m² | - |
| 1777490594 | 11.11° C | 71% | 1011 hPa | 0 mm | - | 67 W/m² | - |
| 1777490290 | 11.11° C | 71% | 1011 hPa | 0 mm | - | 80 W/m² | - |
| 1777488473 | 11.11° C | 71% | 1011.2 hPa | 0 mm | - | 70 W/m² | - |
| 1777487869 | 11.11° C | 70% | 1011.1 hPa | 0 mm | - | 95 W/m² | - |
| 1777486960 | 11.67° C | 70% | 1011 hPa | 0 mm | - | 120 W/m² | - |
| 1777486656 | 11.67° C | 71% | 1011.2 hPa | 0 mm | - | 133 W/m² | - |
| 1777485748 | 11.67° C | 71% | 1011.1 hPa | 0 mm | - | 421 W/m² | - |
| 1777484230 | 11.11° C | 73% | 1011.5 hPa | 0 mm | - | 327 W/m² | - |
* Rain latest hour (hover to see other rain measurements)
** Current wind speed in m/s (hover to see current wind gust speed)